Airfield :
LOGIN :

Register | Disclaimer

   EN    FR    IT 

 










Legend :    VFR   Marginal VFR   IFR   Intensive IFR   Very Intensive IFR
Visi :
Ceiling :
>= 8 km
>= 3000ft
5 to 8 km
1000 to 3000 ft
1500m to 5 km
500 to 1000 ft
800 to 1500m
200 to 500 ft
< 800m
< 200 ft
Symbols :   Thunderstorms  Fog  Heavy snow  Heavy precipitations  Wind > 20 kt
SIGMETs :     Misc.  Thunderstorms  Icing  Turbulence  Mountain Waves  Volcanic Ashes






- Airport Elevation : 423 ft
- IATA code : PIS


LFBI - Poitiers

CURRENT METAR :
  • 102330Z AUTO 19014KT 9999 FEW046 SCT094 BKN120 06/04 Q1017 BECMG 20015G25KT

EXPIRED METARs :
  • 102300Z AUTO 19012KT CAVOK 07/04 Q1018 BECMG 20015G25KT
  • 102230Z AUTO 19012KT CAVOK 07/05 Q1018 BECMG 20015G25KT
  • 102200Z AUTO 18011KT 9999 ///TCU 07/05 Q1018 BECMG 20015G25KT OVC015
  • 102130Z AUTO 18011KT 9999 FEW021/// SCT056/// OVC068/// ///TCU 07/05 Q1019 BECMG 20015G25KT OVC015
  • 102100Z AUTO 17014KT 9999 -RA FEW020/// BKN049/// OVC060/// ///TCU 07/05 Q1019 BECMG 20015G25KT NSC

TAF TAF LFBI
Valid from the 10 at 18:00 until the 11 at 18:00 UTC


101700Z 1018/1118 18008KT CAVOK
BECMG 1021/1023 20015G25KT
BECMG 1023/1101 -RA OVC015
TEMPO 1103/1106 3000 RA OVC008
BECMG 1108/1110 26010KT CAVOK
TEMPO 1115/1118 27015G25KT SHRA BKN020TCU



MET'MAP, your aeronautical weather chart ! - Copyright ORBIFLY December 2007 - Disclaimer

ORBIFLY MET'MAP TEAM :

Programming & Development : Alexandra Zaïnal
Concept & original design : Baudouin d'Aumeries
Assistance for programming : Marc-Olivier Méhu
Technical & hardware support : Manuel Goepfert

Contact : metmap@orbifly.com




SOURCES & CREDITS :

   NOAA